Time;durP1;ratioP1;P1;durP2;ratioP2;P2;SDS_P1;SDS_P2;PMS_P1;PMS_P2;Temp;Humidity;BMP_temperature;BMP_pressure;BME280_temperature;BME280_humidity;BME280_pressure;Samples;Min_cycle;Max_cycle;Signal;HPM_P1;HPM_P2
2022/06/06 00:00:39;;;;;;;15.30;7.13;;;;;;;14.15;94.72;101308.03;6216728;23;20005;-86
2022/06/06 00:03:05;;;;;;;15.57;7.13;;;;;;;14.18;93.97;101314.94;6216611;23;20452;-86
2022/06/06 00:05:31;;;;;;;15.43;7.00;;;;;;;14.17;94.17;101316.69;6216252;23;20008;-86
2022/06/06 00:07:58;;;;;;;16.80;7.97;;;;;;;14.18;94.26;101315.78;6216023;23;20016;-86
2022/06/06 00:10:27;;;;;;;17.48;8.10;;;;;;;14.17;94.68;101316.69;6217088;23;20457;-87
2022/06/06 00:12:52;;;;;;;18.17;8.35;;;;;;;14.17;94.14;101327.13;6215675;23;20075;-87
2022/06/06 00:15:18;;;;;;;15.83;7.03;;;;;;;14.16;94.20;101320.19;6216716;23;20465;-86
2022/06/06 00:17:43;;;;;;;18.90;8.93;;;;;;;14.15;94.63;101310.63;6215835;23;20008;-86
2022/06/06 00:20:09;;;;;;;15.67;7.23;;;;;;;14.16;94.36;101320.19;6215839;23;20003;-87
2022/06/06 00:22:34;;;;;;;18.33;8.07;;;;;;;14.16;94.50;101316.72;6216178;23;20368;-87
2022/06/06 00:24:59;;;;;;;17.57;8.27;;;;;;;14.15;94.47;101309.78;6216436;23;20005;-86
2022/06/06 00:27:25;;;;;;;14.80;6.93;;;;;;;14.15;94.37;101309.78;6215746;23;20005;-86
2022/06/06 00:29:53;;;;;;;18.43;8.67;;;;;;;14.16;95.23;101309.75;6216426;23;20008;-87
2022/06/06 00:35:05;;;;;;;19.17;9.93;;;;;;;14.12;94.88;101305.50;6216413;23;20619;-87
2022/06/06 00:37:33;;;;;;;21.38;10.20;;;;;;;14.13;94.87;101299.38;6216446;23;20043;-88
2022/06/06 00:40:01;;;;;;;17.95;8.85;;;;;;;14.15;95.10;101304.56;6215501;23;20011;-88
2022/06/06 00:42:32;;;;;;;19.27;9.57;;;;;;;14.14;95.79;101303.69;6216890;23;20051;-88
2022/06/06 00:45:23;;;;;;;18.23;9.23;;;;;;;14.15;95.16;101286.28;6215802;23;20013;-88
2022/06/06 00:48:12;;;;;;;18.55;8.70;;;;;;;14.13;95.57;101295.91;6215234;23;20079;-89
2022/06/06 00:50:46;;;;;;;16.15;7.57;;;;;;;14.12;94.73;101302.91;6215177;23;20005;-88
2022/06/06 00:53:17;;;;;;;17.77;8.15;;;;;;;14.12;95.35;101302.03;6216656;23;20005;-88
2022/06/06 00:55:50;;;;;;;18.63;8.48;;;;;;;14.10;95.42;101294.25;6215579;23;20381;-87
2022/06/06 00:58:20;;;;;;;14.02;6.50;;;;;;;14.13;94.84;101301.13;6216376;23;20385;-88
2022/06/06 01:00:47;;;;;;;15.07;6.88;;;;;;;14.14;94.94;101292.41;6214955;23;20008;-87
2022/06/06 01:03:17;;;;;;;15.32;7.00;;;;;;;14.14;95.23;101293.25;6216116;23;20000;-88
2022/06/06 01:05:45;;;;;;;16.98;7.55;;;;;;;14.14;95.98;101295.88;6216246;23;20330;-89
2022/06/06 01:08:11;;;;;;;16.65;6.72;;;;;;;14.13;95.05;101294.13;6215455;23;20013;-88
2022/06/06 01:10:36;;;;;;;12.95;5.50;;;;;;;14.13;94.43;101296.75;6216307;23;20091;-88
2022/06/06 01:13:04;;;;;;;11.00;5.50;;;;;;;14.14;94.88;101295.03;6215829;23;20103;-88
2022/06/06 01:15:54;;;;;;;9.32;4.65;;;;;;;14.17;94.41;101294.97;6215674;23;20009;-89
2022/06/06 01:18:33;;;;;;;8.38;4.18;;;;;;;14.19;94.23;101294.03;6215112;23;20015;-89
2022/06/06 01:21:09;;;;;;;8.15;4.03;;;;;;;14.22;94.00;101300.91;6216280;23;20008;-90
2022/06/06 01:23:56;;;;;;;9.73;4.57;;;;;;;14.23;93.89;101288.72;6215837;23;20031;-89
2022/06/06 01:26:29;;;;;;;12.35;5.50;;;;;;;14.23;94.09;101286.97;6216325;23;20016;-89
2022/06/06 01:29:09;;;;;;;13.45;5.82;;;;;;;14.25;94.10;101284.31;6215729;23;20008;-89
2022/06/06 01:31:48;;;;;;;11.18;5.20;;;;;;;14.28;94.04;101281.63;6216454;23;20015;-88
2022/06/06 01:34:25;;;;;;;15.15;5.85;;;;;;;14.24;94.27;101299.13;6216144;23;20055;-88
2022/06/06 01:36:53;;;;;;;11.13;5.30;;;;;;;14.23;94.09;101305.25;6215048;23;20039;-88
2022/06/06 01:39:21;;;;;;;14.05;6.10;;;;;;;14.21;94.25;101288.75;6216180;23;20011;-89
2022/06/06 01:41:55;;;;;;;17.08;7.38;;;;;;;14.23;95.75;101288.72;6215496;23;20008;-89
2022/06/06 01:44:53;;;;;;;22.90;11.43;;;;;;;14.19;95.56;101293.13;6215285;23;20039;-89
2022/06/06 01:47:26;;;;;;;20.83;10.52;;;;;;;14.19;94.70;101293.13;6197764;23;20008;-88
2022/06/06 01:49:55;;;;;;;20.55;9.85;;;;;;;14.17;95.24;101297.56;6214886;23;20067;-90
2022/06/06 01:52:21;;;;;;;22.25;11.35;;;;;;;14.15;95.74;101292.34;6216055;23;20012;-89
2022/06/06 01:54:46;;;;;;;19.33;9.32;;;;;;;14.15;95.00;101288.91;6215779;23;20008;-89
2022/06/06 01:57:14;;;;;;;24.17;13.03;;;;;;;14.14;96.30;101284.56;6214945;23;20043;-89
2022/06/06 01:59:40;;;;;;;23.55;12.77;;;;;;;14.14;95.55;101280.19;6215765;23;20333;-89
2022/06/06 02:02:06;;;;;;;22.77;12.25;;;;;;;14.14;96.31;101287.19;6215922;23;20015;-88
2022/06/06 02:04:31;;;;;;;26.70;15.40;;;;;;;14.11;96.93;101289.84;6215125;23;20008;-89
2022/06/06 02:06:57;;;;;;;26.63;15.07;;;;;;;14.10;96.73;101283.78;6214929;23;20012;-88
2022/06/06 02:09:22;;;;;;;24.57;14.57;;;;;;;14.10;97.06;101282.91;6215457;23;20456;-90
2022/06/06 02:11:48;;;;;;;26.13;14.63;;;;;;;14.10;96.40;101278.56;6215008;23;20063;-89
2022/06/06 02:14:13;;;;;;;24.70;14.20;;;;;;;14.10;97.09;101269.88;6216020;23;20000;-89
2022/06/06 02:16:39;;;;;;;24.43;13.27;;;;;;;14.10;97.19;101262.03;6215529;23;20087;-87
2022/06/06 02:19:05;;;;;;;23.07;13.67;;;;;;;14.10;96.95;101262.91;6215119;23;20001;-90
2022/06/06 02:21:31;;;;;;;25.92;15.07;;;;;;;14.10;96.62;101262.91;6215934;23;20011;-89
2022/06/06 02:23:56;;;;;;;26.75;15.70;;;;;;;14.10;96.86;101269.88;6215379;23;20032;-89
2022/06/06 02:26:22;;;;;;;23.37;12.93;;;;;;;14.10;96.96;101269.88;6214500;23;20341;-89
2022/06/06 02:28:48;;;;;;;23.07;12.17;;;;;;;14.11;96.41;101268.97;6214799;23;20031;-89
2022/06/06 02:31:13;;;;;;;22.73;12.30;;;;;;;14.10;97.11;101273.34;6215790;23;20008;-89
2022/06/06 02:33:38;;;;;;;24.10;13.27;;;;;;;14.10;97.07;101265.53;6214827;23;20007;-89
2022/06/06 02:36:07;;;;;;;26.23;15.47;;;;;;;14.09;97.41;101269.03;6215291;23;20004;-89
2022/06/06 02:38:32;;;;;;;23.52;13.07;;;;;;;14.10;96.43;101277.69;6215828;23;20004;-89
2022/06/06 02:41:07;;;;;;;21.13;11.07;;;;;;;14.11;96.25;101274.19;6214777;23;20009;-88
2022/06/06 02:43:43;;;;;;;18.98;9.30;;;;;;;14.12;96.30;101266.34;6215674;23;20005;-88
2022/06/06 02:46:10;;;;;;;19.50;9.77;;;;;;;14.13;97.08;101268.03;6214276;23;20477;-89
2022/06/06 02:48:36;;;;;;;22.83;11.82;;;;;;;14.10;96.78;101265.53;6215491;23;20000;-88
2022/06/06 02:51:03;;;;;;;22.15;11.38;;;;;;;14.10;96.71;101267.25;6215445;23;20008;-86
2022/06/06 02:53:29;;;;;;;22.98;11.73;;;;;;;14.10;96.91;101262.03;6214538;23;20004;-88
2022/06/06 02:55:56;;;;;;;21.83;11.27;;;;;;;14.09;95.66;101257.72;6215162;23;20008;-89
2022/06/06 02:58:25;;;;;;;23.83;12.18;;;;;;;14.07;96.47;101267.34;6215005;23;20418;-88
2022/06/06 03:00:59;;;;;;;21.17;10.60;;;;;;;14.05;96.42;101262.16;6213654;23;20426;-89
2022/06/06 03:03:24;;;;;;;22.02;11.20;;;;;;;14.04;96.62;101263.03;6215466;23;20051;-88
2022/06/06 03:06:05;;;;;;;22.77;12.30;;;;;;;14.02;96.51;101268.31;6215189;23;20299;-89
2022/06/06 03:09:02;;;;;;;21.92;11.52;;;;;;;14.01;96.99;101258.75;6214360;23;20334;-88
2022/06/06 03:12:08;;;;;;;21.67;10.75;;;;;;;14.00;96.27;101264.88;6214962;23;20465;-87
2022/06/06 03:14:57;;;;;;;22.83;11.52;;;;;;;13.98;96.65;101260.59;6194107;23;20059;-89
2022/06/06 03:20:47;;;;;;;24.02;12.60;;;;;;;13.93;96.75;101263.31;6215382;23;20019;-87
2022/06/06 03:23:37;;;;;;;20.42;10.20;;;;;;;13.95;96.15;101265.88;6214493;23;20004;-88
2022/06/06 03:26:19;;;;;;;20.95;10.48;;;;;;;13.94;96.75;101275.47;6215499;23;20060;-88
2022/06/06 03:29:09;;;;;;;23.15;11.43;;;;;;;13.93;97.00;101272.88;6214201;23;20084;-88
2022/06/06 03:32:01;;;;;;;27.27;14.05;;;;;;;13.89;96.46;101272.97;6215170;23;20328;-88
2022/06/06 03:34:36;;;;;;;23.08;12.23;;;;;;;13.88;95.98;101276.47;6214804;23;20056;-88
2022/06/06 03:37:06;;;;;;;24.38;12.95;;;;;;;13.86;96.14;101283.44;6214292;23;20416;-88
2022/06/06 03:39:43;;;;;;;29.85;15.93;;;;;;;13.81;96.54;101279.22;6215734;23;20025;-87
2022/06/06 03:42:08;;;;;;;;;;;;;;;13.81;96.39;101274.00;6214933;23;20087;-86
2022/06/06 03:44:33;;;;;;;26.55;14.18;;;;;;;13.79;96.15;101275.78;6214902;23;19947;-87
2022/06/06 03:47:33;;;;;;;28.67;16.13;;;;;;;13.75;95.62;101280.22;6214887;23;20004;-87
2022/06/06 03:50:12;;;;;;;26.08;15.13;;;;;;;13.73;95.70;101277.66;6197368;23;20008;-87
2022/06/06 03:52:49;;;;;;;23.17;12.10;;;;;;;13.72;95.20;101280.28;6214340;23;20425;-87
2022/06/06 03:55:42;;;;;;;23.60;12.57;;;;;;;13.69;95.47;101281.22;6215235;23;20011;-91
2022/06/06 03:58:11;;;;;;;24.55;13.07;;;;;;;13.64;95.11;101277.81;6213722;23;20015;-88
2022/06/06 04:00:40;;;;;;;21.48;11.48;;;;;;;13.62;95.58;101281.38;6216880;23;20444;-91
2022/06/06 04:03:07;;;;;;;25.92;14.80;;;;;;;13.56;95.33;101290.19;6216867;23;20420;-85
2022/06/06 04:05:38;;;;;;;25.15;14.35;;;;;;;13.54;95.32;101289.34;6216124;23;20032;-83
2022/06/06 04:08:05;;;;;;;23.50;12.40;;;;;;;13.57;94.94;101286.69;6216570;23;20019;-81
2022/06/06 04:10:41;;;;;;;23.15;12.25;;;;;;;13.50;94.75;101285.94;6216032;23;20004;-80
2022/06/06 04:13:16;;;;;;;21.70;11.20;;;;;;;13.51;94.71;101299.84;6216959;23;20000;-80
2022/06/06 04:16:05;;;;;;;19.05;8.98;;;;;;;13.51;94.56;101294.63;6216118;23;20059;-80
2022/06/06 04:18:41;;;;;;;18.90;8.77;;;;;;;13.49;94.37;101293.81;6215926;23;20008;-83
2022/06/06 04:21:21;;;;;;;21.35;11.15;;;;;;;13.42;93.98;101299.13;6216562;23;20433;-83
2022/06/06 04:24:28;;;;;;;23.15;11.70;;;;;;;13.46;93.13;101299.06;6216385;23;20005;-84
2022/06/06 04:27:02;;;;;;;23.55;12.63;;;;;;;13.37;93.71;101302.69;6215208;23;20072;-84
2022/06/06 04:29:43;;;;;;;22.48;11.73;;;;;;;13.33;93.88;101299.28;6216728;23;20009;-83
2022/06/06 04:32:35;;;;;;;20.45;10.07;;;;;;;13.30;94.00;101299.34;6215252;23;20083;-84
2022/06/06 04:35:26;;;;;;;23.10;11.57;;;;;;;13.25;93.33;101302.03;6216120;23;20004;-85
2022/06/06 04:38:10;;;;;;;24.45;12.52;;;;;;;13.17;93.58;101306.53;6216314;23;20008;-84
2022/06/06 04:40:38;;;;;;;21.75;10.85;;;;;;;13.15;93.82;101308.31;6215298;23;20449;-83
2022/06/06 04:43:27;;;;;;;21.05;10.60;;;;;;;13.19;93.51;101314.31;6216670;23;20343;-84
2022/06/06 04:46:05;;;;;;;21.13;10.75;;;;;;;13.14;93.05;101309.19;6215298;23;20108;-84
2022/06/06 04:48:34;;;;;;;21.20;11.10;;;;;;;13.12;93.36;101311.84;6216736;23;20004;-84
2022/06/06 04:51:00;;;;;;;21.15;10.75;;;;;;;13.09;92.85;101311.88;6216003;23;20295;-84
2022/06/06 04:53:28;;;;;;;21.63;11.07;;;;;;;13.16;92.35;101309.19;6215590;23;20111;-84
2022/06/06 04:55:56;;;;;;;21.27;11.05;;;;;;;13.13;92.01;101310.06;6215876;23;20367;-83
2022/06/06 04:58:22;;;;;;;20.67;10.95;;;;;;;13.15;92.27;101310.06;6216320;23;20004;-84
2022/06/06 05:00:50;;;;;;;21.97;11.63;;;;;;;13.18;91.20;101310.00;6214911;23;20015;-84
2022/06/06 05:03:15;;;;;;;19.27;9.68;;;;;;;13.19;92.02;101307.38;6216444;23;20063;-84
2022/06/06 05:06:10;;;;;;;19.23;9.90;;;;;;;13.23;92.61;101306.41;6216035;23;20004;-84
2022/06/06 05:09:09;;;;;;;18.27;9.02;;;;;;;13.27;91.92;101312.44;6214780;23;20012;-85
2022/06/06 05:12:15;;;;;;;19.40;9.25;;;;;;;13.31;92.46;101311.47;6216138;23;20080;-83
2022/06/06 05:14:59;;;;;;;;;;;;;;;13.38;92.03;101317.44;6215527;23;20009;-83
2022/06/06 05:17:59;;;;;;;19.73;10.07;;;;;;;13.37;91.56;101310.50;6216275;23;19908;-83
2022/06/06 05:20:43;;;;;;;17.77;9.43;;;;;;;13.39;91.59;101314.84;6216315;23;20025;-84
2022/06/06 05:23:15;;;;;;;20.08;10.52;;;;;;;13.39;91.53;101317.47;6215759;23;20004;-84
2022/06/06 05:26:09;;;;;;;17.95;9.82;;;;;;;13.43;90.82;101326.91;6215983;23;20008;-83
2022/06/06 05:29:09;;;;;;;17.45;9.15;;;;;;;13.44;91.14;101322.59;6215287;23;20374;-83
2022/06/06 05:31:55;;;;;;;14.25;8.02;;;;;;;13.44;91.10;101320.81;6199911;23;20004;-84
2022/06/06 05:34:24;;;;;;;;;;;;;;;13.47;90.70;101321.66;6216756;23;20005;-84
2022/06/06 05:37:17;;;;;;;19.05;10.60;;;;;;;13.51;90.40;101333.75;6214702;23;19915;-86
2022/06/06 05:39:45;;;;;;;19.42;10.80;;;;;;;13.51;89.64;101332.00;6215752;23;20046;-83
2022/06/06 05:42:23;;;;;;;19.63;12.05;;;;;;;13.52;89.94;101331.09;6215250;23;20055;-84
2022/06/06 05:45:00;;;;;;;20.25;11.80;;;;;;;13.60;89.55;101328.34;6215672;23;20338;-84
2022/06/06 05:47:48;;;;;;;19.23;11.50;;;;;;;13.63;88.35;101338.69;6215571;23;20009;-83
2022/06/06 05:50:51;;;;;;;22.30;14.70;;;;;;;13.65;88.85;101336.94;6214654;23;20322;-85
2022/06/06 05:54:02;;;;;;;21.02;13.10;;;;;;;13.70;88.76;101335.09;6215345;23;20088;-84
2022/06/06 05:56:43;;;;;;;20.70;12.55;;;;;;;13.72;88.89;101329.84;6214849;23;20044;-84
2022/06/06 05:59:53;;;;;;;18.25;10.95;;;;;;;13.69;88.09;101340.31;6215273;23;20031;-84
2022/06/06 06:02:55;;;;;;;16.73;10.02;;;;;;;13.72;88.25;101342.88;6123755;23;20355;-84
2022/06/06 06:05:34;;;;;;;16.48;9.57;;;;;;;13.89;88.33;101339.91;6164609;23;20012;-83
2022/06/06 06:08:13;;;;;;;16.60;9.73;;;;;;;15.33;86.40;101333.88;6214595;23;20008;-85
2022/06/06 06:11:04;;;;;;;18.10;10.57;;;;;;;16.37;80.70;101338.72;6214489;23;20004;-86
2022/06/06 06:13:48;;;;;;;17.70;10.60;;;;;;;16.77;76.56;101333.94;6215792;23;20027;-85
2022/06/06 06:16:16;;;;;;;17.75;10.80;;;;;;;16.55;75.26;101341.69;6215530;23;20004;-84
2022/06/06 06:18:44;;;;;;;15.57;9.20;;;;;;;16.39;76.65;101350.00;6214238;23;20008;-85
2022/06/06 06:21:17;;;;;;;15.93;9.05;;;;;;;16.15;75.51;101344.63;6215322;23;20033;-85
2022/06/06 06:23:51;;;;;;;17.73;10.90;;;;;;;16.05;76.75;101349.28;6214671;23;20480;-86
2022/06/06 06:26:20;;;;;;;15.60;9.57;;;;;;;15.98;77.65;101352.16;6214127;23;20004;-84
2022/06/06 06:28:48;;;;;;;16.58;9.05;;;;;;;16.20;77.12;101360.19;6210929;23;20089;-85
2022/06/06 06:31:39;;;;;;;12.38;7.25;;;;;;;16.66;76.31;101360.53;6213270;23;20009;-84
2022/06/06 06:34:15;;;;;;;12.88;7.97;;;;;;;16.98;76.90;101353.38;6213527;23;20503;-86
2022/06/06 06:36:43;;;;;;;;;;;;;;;17.30;76.49;101356.66;6214998;23;20012;-85
2022/06/06 06:39:20;;;;;;;10.73;6.55;;;;;;;17.50;73.03;101363.81;6213690;23;19935;-86
2022/06/06 06:41:56;;;;;;;9.88;6.22;;;;;;;17.67;71.66;101375.44;6214451;23;20361;-87
2022/06/06 06:44:32;;;;;;;10.95;6.40;;;;;;;17.65;69.62;101379.91;6215271;23;20088;-84
2022/06/06 06:47:08;;;;;;;8.98;5.43;;;;;;;17.31;69.95;101383.72;6213801;23;20000;-88
2022/06/06 06:49:39;;;;;;;8.97;5.40;;;;;;;17.14;72.42;101365.03;6214466;23;20000;-89
2022/06/06 06:52:21;;;;;;;7.40;4.40;;;;;;;17.12;72.78;101379.97;6213637;23;20235;-87
2022/06/06 06:54:57;;;;;;;6.47;4.10;;;;;;;16.95;67.76;101375.28;6214442;23;20087;-86
2022/06/06 06:57:50;;;;;;;5.95;3.70;;;;;;;16.71;72.78;101382.19;6215041;23;20013;-85
2022/06/06 07:00:18;;;;;;;5.55;3.80;;;;;;;16.54;72.54;101379.25;6213743;23;20083;-85
2022/06/06 07:09:00;;;;;;;5.18;3.20;;;;;;;16.73;72.57;101380.38;6214210;23;20043;-85
2022/06/06 07:11:34;;;;;;;4.85;3.10;;;;;;;16.83;71.30;101379.16;6214706;23;20055;-84
2022/06/06 07:14:04;;;;;;;4.53;2.90;;;;;;;16.82;71.03;101377.44;6213919;23;20004;-84
2022/06/06 07:16:35;;;;;;;3.83;2.50;;;;;;;16.89;71.75;101385.97;6214641;23;20483;-85
2022/06/06 07:19:14;;;;;;;3.50;2.60;;;;;;;17.06;71.01;101385.44;6213966;23;20084;-87
2022/06/06 07:21:41;;;;;;;3.55;2.50;;;;;;;16.98;69.71;101382.22;6213004;23;20011;-84
2022/06/06 07:24:18;;;;;;;4.70;2.50;;;;;;;17.00;68.78;101383.00;6214249;23;20028;-85
2022/06/06 07:26:44;;;;;;;3.10;2.50;;;;;;;16.88;68.05;101384.25;6214069;23;20020;-85
2022/06/06 07:29:12;;;;;;;;;;;;;;;16.85;69.33;101389.59;6214328;23;20005;-83
2022/06/06 07:31:57;;;;;;;3.95;2.50;;;;;;;16.96;70.58;101394.53;6213527;23;19912;-86
2022/06/06 07:34:41;;;;;;;3.70;2.47;;;;;;;17.02;70.76;101393.47;6215236;23;20066;-85
2022/06/06 07:37:23;;;;;;;3.05;2.40;;;;;;;16.87;69.39;101390.41;6216633;23;20009;-86
2022/06/06 07:40:13;;;;;;;2.30;2.20;;;;;;;16.90;69.27;101392.06;6216227;23;20028;-85
2022/06/06 07:42:48;;;;;;;2.50;2.30;;;;;;;16.80;70.77;101397.59;6215232;23;20011;-84
2022/06/06 07:45:16;;;;;;;2.70;2.50;;;;;;;16.67;70.25;101401.53;6216771;23;20062;-85
2022/06/06 07:47:59;;;;;;;2.20;2.10;;;;;;;16.54;68.76;101395.81;6216248;23;20005;-85
2022/06/06 07:50:53;;;;;;;2.70;2.50;;;;;;;16.50;71.22;101402.94;6215743;23;20008;-84
2022/06/06 07:53:33;;;;;;;3.60;2.20;;;;;;;16.45;71.59;101403.97;6215628;23;20083;-85
2022/06/06 07:56:20;;;;;;;2.40;2.20;;;;;;;16.43;72.47;101405.78;6215501;23;20005;-85
2022/06/06 07:58:51;;;;;;;2.75;2.50;;;;;;;16.29;70.89;101398.34;6215697;23;20430;-84
2022/06/06 08:01:44;;;;;;;2.67;2.40;;;;;;;16.33;72.05;101399.97;6216292;23;20032;-84
2022/06/06 08:04:22;;;;;;;2.85;2.63;;;;;;;16.36;70.64;101399.88;6212676;23;20417;-87
2022/06/06 08:07:04;;;;;;;2.60;2.40;;;;;;;16.46;72.06;101403.06;6214633;23;20023;-86
2022/06/06 08:09:56;;;;;;;2.30;2.20;;;;;;;16.56;71.72;101401.00;6214012;23;20315;-83
2022/06/06 08:12:38;;;;;;;2.30;2.10;;;;;;;16.54;71.79;101394.97;6215920;23;20025;-84
2022/06/06 08:15:34;;;;;;;2.60;2.40;;;;;;;16.44;70.84;101399.63;6215416;23;20027;-86
2022/06/06 08:18:08;;;;;;;2.72;2.40;;;;;;;16.25;69.11;101396.72;6215010;23;20005;-84
2022/06/06 08:20:54;;;;;;;2.65;2.40;;;;;;;16.10;69.83;101398.88;6216578;23;20008;-83
2022/06/06 08:23:20;;;;;;;3.35;2.20;;;;;;;16.15;69.71;101394.38;6216033;23;20011;-84
2022/06/06 08:25:48;;;;;;;2.50;2.30;;;;;;;16.28;69.31;101387.00;6214836;23;20009;-83
2022/06/06 08:28:14;;;;;;;2.47;1.98;;;;;;;16.47;71.70;101391.69;6215783;23;20250;-82
2022/06/06 08:30:41;;;;;;;;;;;;;;;16.61;70.36;101391.25;6215257;23;20032;-82
2022/06/06 08:33:06;;;;;;;2.78;2.00;;;;;;;16.78;68.25;101395.94;6215065;23;19908;-83
2022/06/06 08:35:53;;;;;;;2.00;1.90;;;;;;;16.87;68.46;101389.56;6215651;23;20426;-83
2022/06/06 08:38:40;;;;;;;2.25;2.05;;;;;;;16.93;67.85;101379.72;6214344;23;20020;-82
2022/06/06 08:41:28;;;;;;;2.85;2.10;;;;;;;16.96;68.57;101382.25;6215845;23;20000;-83
2022/06/06 08:44:01;;;;;;;2.42;1.83;;;;;;;16.96;69.28;101384.88;6215948;23;20009;-83
2022/06/06 08:46:45;;;;;;;1.70;1.60;;;;;;;16.95;70.42;101377.91;6215353;23;20008;-82
2022/06/06 08:53:13;;;;;;;2.13;1.80;;;;;;;16.86;68.34;101377.34;6090934;23;20141;-83
2022/06/06 08:56:08;;;;;;;1.80;1.70;;;;;;;16.72;68.30;101362.94;6214886;23;20079;-83
2022/06/06 08:59:12;;;;;;;2.25;1.80;;;;;;;16.63;67.54;101365.84;6215008;23;20078;-83
2022/06/06 09:02:14;;;;;;;2.72;2.40;;;;;;;16.62;68.14;101366.75;6217401;23;20455;-82
2022/06/06 09:04:58;;;;;;;2.00;1.90;;;;;;;16.72;66.84;101373.41;6214436;23;20009;-85
2022/06/06 09:08:03;;;;;;;2.50;2.30;;;;;;;17.04;67.72;101370.66;6215299;23;20020;-84
2022/06/06 09:10:29;;;;;;;3.55;2.60;;;;;;;17.32;69.59;101380.19;6216537;23;20326;-83
2022/06/06 09:13:25;;;;;;;7.13;4.30;;;;;;;17.37;65.82;101373.88;6214855;23;20000;-84
2022/06/06 09:16:10;;;;;;;8.65;4.20;;;;;;;17.45;67.66;101368.34;6215613;23;20441;-83
2022/06/06 09:18:47;;;;;;;6.07;3.90;;;;;;;17.61;67.51;101366.03;6216287;23;20016;-83
2022/06/06 09:21:50;;;;;;;5.35;3.38;;;;;;;17.51;64.40;101364.66;6215512;23;20058;-82
2022/06/06 09:24:53;;;;;;;6.82;3.72;;;;;;;17.28;66.64;101355.84;6215642;23;20004;-83
2022/06/06 09:27:43;;;;;;;5.90;3.15;;;;;;;16.96;66.27;101361.28;6212512;23;20063;-81
2022/06/06 09:30:39;;;;;;;3.10;2.70;;;;;;;16.83;66.52;101363.44;6215958;23;20414;-83
2022/06/06 09:33:48;;;;;;;5.20;2.60;;;;;;;16.88;67.01;101357.19;6213829;23;20027;-89
2022/06/06 09:36:44;;;;;;;4.60;2.30;;;;;;;17.33;66.81;101360.91;6215251;23;20060;-82
2022/06/06 09:39:27;;;;;;;2.65;1.90;;;;;;;17.72;66.79;101353.38;6214193;23;20000;-79
2022/06/06 09:42:31;;;;;;;5.32;2.53;;;;;;;18.19;63.77;101344.59;6212282;23;20444;-83
2022/06/06 09:45:02;;;;;;;2.13;1.92;;;;;;;18.39;61.94;101340.34;6169800;23;20405;-83
2022/06/06 09:47:49;;;;;;;3.60;1.95;;;;;;;18.62;61.99;101342.03;6215637;23;20036;-85
2022/06/06 09:51:00;;;;;;;2.72;1.80;;;;;;;18.88;62.69;101331.34;6213213;23;20009;-85
2022/06/06 09:53:44;;;;;;;3.15;1.77;;;;;;;19.23;60.08;101321.09;6214680;23;20079;-85
2022/06/06 09:59:40;;;;;;;2.63;1.70;;;;;;;19.65;56.03;101335.03;6215848;23;20091;-87
2022/06/06 10:02:23;;;;;;;1.60;1.50;;;;;;;19.83;60.04;101333.34;6214681;23;20008;-83
2022/06/06 10:05:21;;;;;;;2.40;1.70;;;;;;;19.51;53.48;101322.50;6214870;23;20025;-84
2022/06/06 10:08:23;;;;;;;2.97;1.50;;;;;;;19.11;56.42;101333.03;6214396;23;20012;-85
2022/06/06 10:11:05;;;;;;;2.50;1.63;;;;;;;19.14;58.56;101327.59;6214158;23;20012;-83
2022/06/06 10:13:52;;;;;;;2.20;1.60;;;;;;;19.25;59.98;101325.34;6215310;23;20036;-84
2022/06/06 10:16:33;;;;;;;2.67;1.50;;;;;;;19.27;58.91;101314.78;6214048;23;20452;-84
2022/06/06 10:19:23;;;;;;;1.55;1.45;;;;;;;19.25;57.27;101306.09;6214993;23;20027;-85
2022/06/06 10:22:10;;;;;;;1.88;1.38;;;;;;;19.23;58.52;101318.47;6215018;23;20000;-84
2022/06/06 10:25:02;;;;;;;2.45;1.50;;;;;;;19.21;59.45;101310.66;6214581;23;20008;-84
2022/06/06 10:27:39;;;;;;;1.20;1.20;;;;;;;19.14;60.77;101307.44;6214703;23;20033;-83
2022/06/06 10:30:22;;;;;;;1.20;1.20;;;;;;;19.13;60.66;101310.16;6214547;23;20009;-85
2022/06/06 10:33:09;;;;;;;2.00;1.60;;;;;;;19.39;59.95;101318.63;6214598;23;20012;-85
2022/06/06 10:35:44;;;;;;;1.60;1.50;;;;;;;19.35;59.47;101317.09;6214973;23;20012;-85
2022/06/06 10:38:50;;;;;;;1.52;1.38;;;;;;;19.48;59.80;101317.38;6214081;23;20035;-85
2022/06/06 10:41:36;;;;;;;2.38;1.65;;;;;;;19.75;57.18;101316.13;6215159;23;20047;-86
2022/06/06 10:44:31;;;;;;;4.32;1.77;;;;;;;19.96;57.47;101313.44;6214699;23;20008;-84
2022/06/06 10:47:28;;;;;;;1.30;1.20;;;;;;;19.89;58.09;101320.75;6214037;23;20008;-85
2022/06/06 10:50:28;;;;;;;1.33;1.23;;;;;;;19.76;59.24;101316.97;6214886;23;20054;-85
2022/06/06 10:53:15;;;;;;;1.30;1.30;;;;;;;19.71;57.12;101319.81;6164907;23;20291;-86
2022/06/06 10:56:18;;;;;;;1.60;1.50;;;;;;;19.74;60.13;101330.22;6214863;23;20012;-84
2022/06/06 10:59:09;;;;;;;1.63;1.52;;;;;;;19.81;57.65;101322.00;6214193;23;20000;-84
2022/06/06 11:01:40;;;;;;;2.63;1.58;;;;;;;19.77;54.77;101318.66;6214796;23;20012;-85
2022/06/06 11:04:30;;;;;;;2.40;1.65;;;;;;;19.95;57.66;101311.72;6214220;23;20005;-84
2022/06/06 11:07:07;;;;;;;3.13;1.60;;;;;;;20.02;55.82;101307.84;6213723;23;20016;-82
2022/06/06 11:10:06;;;;;;;1.77;1.27;;;;;;;20.13;55.23;101311.75;6214985;23;20365;-83
2022/06/06 11:12:57;;;;;;;1.75;1.55;;;;;;;20.02;55.99;101312.28;6213679;23;20016;-84
2022/06/06 11:15:34;;;;;;;3.25;1.60;;;;;;;19.93;54.64;101295.13;6208933;23;20018;-84
2022/06/06 11:18:18;;;;;;;2.75;1.58;;;;;;;20.00;56.17;101298.31;6214220;23;20035;-84
2022/06/06 11:20:56;;;;;;;1.75;1.50;;;;;;;20.17;57.35;101295.72;6212554;23;20008;-81
2022/06/06 11:23:30;;;;;;;1.52;1.40;;;;;;;20.23;55.60;101301.63;6214412;23;20009;-84
2022/06/06 11:26:14;;;;;;;1.38;1.30;;;;;;;20.13;54.96;101286.28;6214666;23;20027;-83
2022/06/06 11:28:58;;;;;;;3.40;1.30;;;;;;;20.19;56.05;101285.97;6214151;23;20090;-82
2022/06/06 11:31:29;;;;;;;2.08;1.17;;;;;;;20.11;55.21;101274.94;6215294;23;20004;-83
2022/06/06 11:34:24;;;;;;;1.05;1.00;;;;;;;20.05;55.74;101283.13;6213769;23;20020;-83
2022/06/06 11:37:08;;;;;;;1.92;1.50;;;;;;;19.83;56.16;101272.75;6214418;23;20083;-83
2022/06/06 11:40:08;;;;;;;2.20;1.40;;;;;;;19.75;56.40;101286.28;6215060;23;20012;-83
2022/06/06 11:42:58;;;;;;;1.92;1.70;;;;;;;19.82;52.95;101282.41;6213862;23;20004;-83
2022/06/06 11:45:58;;;;;;;2.13;1.30;;;;;;;19.80;54.09;101292.19;6215192;23;20051;-82
2022/06/06 11:48:32;;;;;;;1.60;1.40;;;;;;;19.76;55.02;101294.09;6214044;23;20015;-83
2022/06/06 11:51:21;;;;;;;3.28;1.40;;;;;;;19.48;54.16;101288.41;6214886;23;20015;-83
2022/06/06 11:54:25;;;;;;;1.45;1.35;;;;;;;19.07;55.16;101284.97;6214495;23;20080;-83
2022/06/06 11:57:17;;;;;;;2.58;1.67;;;;;;;18.86;57.45;101289.34;6213965;23;20079;-83
2022/06/06 12:00:11;;;;;;;1.70;1.25;;;;;;;18.85;58.16;101299.94;6214056;23;20008;-84
2022/06/06 12:02:55;;;;;;;1.30;1.20;;;;;;;18.82;57.45;101298.25;6214011;23;20382;-83
2022/06/06 12:05:35;;;;;;;1.88;1.30;;;;;;;18.71;56.72;101303.13;6215139;23;20011;-83
2022/06/06 12:08:29;;;;;;;1.10;1.00;;;;;;;18.61;56.99;101286.91;6214678;23;20092;-82
2022/06/06 12:11:01;;;;;;;1.33;1.23;;;;;;;18.57;57.23;101287.94;6214141;23;20028;-83
2022/06/06 12:14:01;;;;;;;1.00;1.00;;;;;;;18.55;58.29;101290.66;6214910;23;20047;-82
2022/06/06 12:17:10;;;;;;;2.22;1.30;;;;;;;18.46;57.47;101278.72;6214029;23;20022;-83
2022/06/06 12:20:19;;;;;;;2.03;1.10;;;;;;;18.40;58.95;101296.53;6159164;23;20008;-82
2022/06/06 12:23:09;;;;;;;1.80;1.17;;;;;;;18.29;59.06;101297.81;6214968;23;20008;-84
2022/06/06 12:25:46;;;;;;;1.70;1.45;;;;;;;18.26;60.16;101289.22;6216488;23;20005;-82
2022/06/06 12:28:30;;;;;;;2.97;1.42;;;;;;;18.34;59.70;101300.25;6216465;23;20495;-82
2022/06/06 12:31:17;;;;;;;3.95;1.58;;;;;;;18.37;57.48;101287.00;6215512;23;20008;-83
2022/06/06 12:33:54;;;;;;;1.20;1.20;;;;;;;18.43;58.63;101283.28;6216380;23;20326;-82
2022/06/06 12:36:31;;;;;;;1.58;1.40;;;;;;;18.43;59.84;101286.72;6216738;23;20054;-83